createdAt,value
2019-01-30T00:00:55.857Z,7.67
2019-01-30T00:03:26.430Z,8.67
2019-01-30T00:05:55.543Z,6.03
2019-01-30T00:08:24.115Z,3.63
2019-01-30T00:10:53.999Z,5.53
2019-01-30T00:13:24.770Z,6.07
2019-01-30T00:15:56.358Z,6.57
2019-01-30T00:18:24.687Z,9.43
2019-01-30T00:20:53.739Z,8.00
2019-01-30T00:23:23.907Z,9.63
2019-01-30T00:25:54.353Z,6.17
2019-01-30T00:28:25.562Z,6.43
2019-01-30T00:30:56.451Z,8.23
2019-01-30T00:33:24.974Z,7.40
2019-01-30T00:35:54.115Z,10.30
2019-01-30T00:38:23.896Z,4.67
2019-01-30T00:40:52.566Z,7.13
2019-01-30T00:43:21.648Z,2.17
2019-01-30T00:45:50.193Z,6.03
2019-01-30T00:48:19.506Z,7.87
2019-01-30T00:50:47.703Z,9.73
2019-01-30T00:53:15.466Z,6.43
2019-01-30T00:55:45.361Z,7.00
2019-01-30T00:58:13.564Z,8.63
2019-01-30T01:00:42.809Z,7.13
2019-01-30T01:03:13.155Z,6.13
2019-01-30T01:05:41.469Z,8.93
2019-01-30T01:08:10.264Z,7.43
2019-01-30T01:10:38.962Z,7.73
2019-01-30T01:13:06.732Z,8.50
2019-01-30T01:15:34.878Z,11.63
2019-01-30T01:18:04.638Z,11.73
2019-01-30T01:20:32.757Z,6.73
2019-01-30T01:23:01.230Z,9.77
2019-01-30T01:25:31.671Z,8.43
2019-01-30T01:28:01.889Z,9.48
2019-01-30T01:30:32.056Z,9.23
2019-01-30T01:33:01.327Z,6.73
2019-01-30T01:35:31.949Z,9.97
2019-01-30T01:37:59.993Z,9.83
2019-01-30T01:40:29.218Z,9.43
2019-01-30T01:42:57.390Z,9.77
2019-01-30T01:45:25.370Z,9.60
2019-01-30T01:47:54.167Z,11.30
2019-01-30T01:50:24.277Z,8.47
2019-01-30T01:52:54.871Z,7.93
2019-01-30T01:55:25.699Z,10.30
2019-01-30T01:57:54.343Z,8.93
2019-01-30T02:00:24.127Z,6.73
2019-01-30T02:02:54.266Z,7.90
2019-01-30T02:05:24.338Z,9.07
2019-01-30T02:07:54.960Z,10.37
2019-01-30T02:10:24.391Z,9.20
2019-01-30T02:12:52.992Z,7.70
2019-01-30T02:15:22.756Z,10.20
2019-01-30T02:17:52.730Z,6.90
2019-01-30T02:20:25.569Z,10.83
2019-01-30T02:22:54.582Z,9.90
2019-01-30T02:25:24.880Z,10.13
2019-01-30T02:27:54.292Z,10.33
2019-01-30T02:30:27.310Z,8.00
2019-01-30T02:32:59.804Z,5.17
2019-01-30T02:35:30.587Z,11.37
2019-01-30T02:38:02.425Z,9.10
2019-01-30T02:40:33.818Z,9.70
2019-01-30T02:43:03.678Z,8.83
2019-01-30T02:45:33.138Z,11.60
2019-01-30T02:48:03.194Z,11.50
2019-01-30T02:50:35.074Z,7.90
2019-01-30T02:53:03.181Z,8.90
2019-01-30T02:55:31.768Z,10.43
2019-01-30T02:58:00.954Z,11.90
2019-01-30T03:00:30.704Z,13.45
2019-01-30T03:02:59.994Z,10.98
2019-01-30T03:05:29.758Z,8.83
2019-01-30T03:07:58.433Z,10.33
2019-01-30T03:10:29.174Z,10.97
2019-01-30T03:12:58.216Z,8.77
2019-01-30T03:15:27.530Z,9.70
2019-01-30T03:17:57.259Z,11.80
2019-01-30T03:20:27.728Z,11.37
2019-01-30T03:22:57.939Z,9.90
2019-01-30T03:25:26.613Z,11.93
2019-01-30T03:27:56.145Z,8.43
2019-01-30T03:30:28.197Z,8.50
2019-01-30T03:32:58.526Z,12.20
2019-01-30T03:35:27.739Z,10.40
2019-01-30T03:37:56.546Z,9.47
2019-01-30T03:40:25.538Z,11.37
2019-01-30T03:42:55.875Z,11.27
2019-01-30T03:45:24.793Z,9.77
2019-01-30T03:47:53.681Z,7.97
2019-01-30T03:50:22.943Z,10.03
2019-01-30T03:52:51.038Z,10.17
2019-01-30T03:55:21.208Z,9.60
2019-01-30T03:57:49.751Z,9.70
2019-01-30T04:00:26.150Z,11.97
2019-01-30T04:02:54.527Z,8.17
2019-01-30T04:05:24.706Z,9.33
2019-01-30T04:07:53.027Z,9.63
2019-01-30T04:10:21.859Z,7.80
2019-01-30T04:12:51.470Z,8.43
2019-01-30T04:15:22.609Z,12.47
2019-01-30T04:17:52.057Z,9.03
2019-01-30T04:20:21.250Z,9.93
2019-01-30T04:22:48.841Z,11.50
2019-01-30T04:25:16.914Z,8.37
2019-01-30T04:27:47.002Z,8.60
2019-01-30T04:30:21.618Z,7.90
2019-01-30T04:32:50.232Z,11.50
2019-01-30T04:35:19.009Z,8.77
2019-01-30T04:37:48.991Z,9.93
2019-01-30T04:40:18.951Z,8.30
2019-01-30T04:42:50.428Z,8.43
2019-01-30T04:45:22.268Z,10.27
2019-01-30T04:47:51.865Z,9.80
2019-01-30T04:50:20.532Z,9.57
2019-01-30T04:52:50.710Z,8.83
2019-01-30T04:55:21.345Z,9.87
2019-01-30T04:57:51.467Z,9.73
2019-01-30T05:00:21.685Z,9.07
2019-01-30T05:02:52.283Z,10.93
2019-01-30T05:05:22.670Z,11.70
2019-01-30T05:07:55.549Z,10.30
2019-01-30T05:10:27.207Z,9.32
2019-01-30T05:12:59.701Z,8.07
2019-01-30T05:15:29.976Z,10.50
2019-01-30T05:18:00.207Z,10.90
2019-01-30T05:20:28.473Z,9.80
2019-01-30T05:22:56.798Z,12.03
2019-01-30T05:25:26.569Z,10.17
2019-01-30T05:27:56.717Z,9.23
2019-01-30T05:30:28.216Z,10.17
2019-01-30T05:32:57.237Z,9.70
2019-01-30T05:35:25.697Z,9.47
2019-01-30T05:37:55.997Z,9.23
2019-01-30T05:40:25.639Z,11.63
2019-01-30T05:42:54.488Z,9.10
2019-01-30T05:45:22.637Z,9.97
2019-01-30T05:47:51.092Z,8.47
2019-01-30T05:50:19.125Z,10.27
2019-01-30T05:52:47.805Z,8.73
2019-01-30T05:55:17.913Z,11.87
2019-01-30T05:57:49.489Z,12.03
2019-01-30T06:00:20.615Z,9.87
2019-01-30T06:02:51.155Z,11.07
2019-01-30T06:05:19.231Z,9.20
2019-01-30T06:07:48.400Z,12.63
2019-01-30T06:10:18.232Z,8.20
2019-01-30T06:12:48.382Z,10.90
2019-01-30T06:15:18.991Z,8.73
2019-01-30T06:17:49.125Z,9.93
2019-01-30T06:20:19.313Z,8.70
2019-01-30T06:22:48.516Z,8.57
2019-01-30T06:25:18.684Z,8.27
2019-01-30T06:27:46.932Z,9.43
2019-01-30T06:30:16.913Z,11.20
2019-01-30T06:32:45.346Z,8.60
2019-01-30T06:35:14.128Z,10.67
2019-01-30T06:37:43.339Z,9.23
2019-01-30T06:40:13.730Z,8.93
2019-01-30T06:42:43.557Z,9.37
2019-01-30T06:45:13.975Z,10.47
2019-01-30T06:47:42.765Z,9.93
2019-01-30T06:50:12.391Z,8.43
2019-01-30T06:52:43.192Z,8.33
2019-01-30T06:55:14.155Z,8.03
2019-01-30T06:57:44.665Z,11.37
2019-01-30T07:00:14.954Z,11.43
2019-01-30T07:02:43.117Z,10.90
2019-01-30T07:05:12.685Z,10.33
2019-01-30T07:07:44.323Z,12.20
2019-01-30T07:10:15.407Z,9.40
2019-01-30T07:12:43.731Z,9.70
2019-01-30T07:15:13.815Z,9.23
2019-01-30T07:17:43.452Z,11.43
2019-01-30T07:20:13.465Z,10.50
2019-01-30T07:22:43.513Z,10.80
2019-01-30T07:25:12.623Z,10.23
2019-01-30T07:27:43.219Z,11.97
2019-01-30T07:30:14.926Z,11.07
2019-01-30T07:32:44.744Z,11.13
2019-01-30T07:35:13.406Z,11.83
2019-01-30T07:37:44.241Z,8.50
2019-01-30T07:40:12.594Z,10.63
2019-01-30T07:42:42.656Z,11.27
2019-01-30T07:45:12.438Z,9.80
2019-01-30T07:47:42.914Z,11.00
2019-01-30T07:50:13.273Z,10.37
2019-01-30T07:52:42.903Z,14.60
2019-01-30T07:55:13.011Z,10.60
2019-01-30T07:57:43.691Z,10.57
2019-01-30T08:00:17.823Z,9.33
2019-01-30T08:02:52.928Z,10.73
2019-01-30T08:05:12.803Z,10.70
2019-01-30T08:07:41.363Z,10.40
2019-01-30T08:10:11.286Z,9.10
2019-01-30T08:12:39.892Z,10.57
2019-01-30T08:15:11.917Z,8.80
2019-01-30T08:17:39.999Z,10.67
2019-01-30T08:20:12.302Z,12.07
2019-01-30T08:22:42.945Z,11.30
2019-01-30T08:25:14.364Z,9.73
2019-01-30T08:27:42.473Z,9.90
2019-01-30T08:30:22.648Z,10.27
2019-01-30T08:32:45.363Z,11.73
2019-01-30T08:35:15.919Z,10.27
2019-01-30T08:37:46.878Z,11.33
2019-01-30T08:40:15.966Z,11.07
2019-01-30T08:42:47.697Z,10.20
2019-01-30T08:45:19.778Z,12.63
2019-01-30T08:47:49.764Z,10.10
2019-01-30T08:50:18.524Z,12.57
2019-01-30T08:52:49.450Z,11.10
2019-01-30T08:55:19.544Z,9.03
2019-01-30T08:57:49.212Z,12.17
2019-01-30T09:00:19.338Z,10.73
2019-01-30T09:02:49.179Z,10.70
2019-01-30T09:05:18.894Z,9.33
2019-01-30T09:07:48.867Z,11.63
2019-01-30T09:10:21.399Z,9.37
2019-01-30T09:12:51.542Z,8.93
2019-01-30T09:15:20.746Z,8.27
2019-01-30T09:17:51.976Z,9.80
2019-01-30T09:20:21.582Z,9.03
2019-01-30T09:22:50.277Z,9.97
2019-01-30T09:25:20.961Z,15.47
2019-01-30T09:27:50.629Z,10.93
2019-01-30T09:30:23.637Z,9.50
2019-01-30T09:32:55.750Z,11.43
2019-01-30T09:35:23.407Z,9.93
2019-01-30T09:37:54.345Z,9.30
2019-01-30T09:40:22.930Z,9.00
2019-01-30T09:42:51.912Z,8.47
2019-01-30T09:45:20.082Z,8.53
2019-01-30T09:47:48.822Z,9.60
2019-01-30T09:50:19.131Z,8.63
2019-01-30T09:52:47.708Z,8.73
2019-01-30T09:55:17.331Z,9.67
2019-01-30T09:57:45.941Z,8.77
2019-01-30T10:00:16.188Z,11.25
2019-01-30T10:02:47.811Z,8.52
2019-01-30T10:05:16.220Z,9.13
2019-01-30T10:07:44.829Z,8.90
2019-01-30T10:10:15.702Z,9.35
2019-01-30T10:12:44.879Z,8.75
2019-01-30T10:15:16.785Z,9.00
2019-01-30T10:17:45.229Z,9.57
2019-01-30T10:20:16.669Z,8.02
2019-01-30T10:22:45.748Z,8.77
2019-01-30T10:25:16.154Z,10.50
2019-01-30T10:27:46.296Z,7.10
2019-01-30T10:30:19.296Z,7.43
2019-01-30T10:32:47.390Z,8.30
2019-01-30T10:35:16.161Z,9.30
2019-01-30T10:37:45.870Z,8.93
2019-01-30T10:40:16.179Z,10.00
2019-01-30T10:42:45.402Z,8.33
2019-01-30T10:45:14.895Z,9.88
2019-01-30T10:47:43.701Z,9.85
2019-01-30T10:50:15.077Z,8.55
2019-01-30T10:52:44.479Z,11.20
2019-01-30T10:55:16.703Z,10.83
2019-01-30T10:57:45.861Z,8.30
2019-01-30T11:00:16.341Z,11.80
2019-01-30T11:02:46.560Z,11.53
2019-01-30T11:05:16.583Z,9.55
2019-01-30T11:07:45.771Z,11.53
2019-01-30T11:10:15.024Z,8.33
2019-01-30T11:12:44.753Z,9.68
2019-01-30T11:15:15.354Z,9.27
2019-01-30T11:17:44.374Z,9.53
2019-01-30T11:20:13.442Z,12.15
2019-01-30T11:22:43.765Z,10.38
2019-01-30T11:25:14.205Z,8.15
2019-01-30T11:27:42.980Z,8.70
2019-01-30T11:30:11.522Z,9.60
2019-01-30T11:32:41.104Z,8.70
2019-01-30T11:35:09.761Z,10.88
2019-01-30T11:37:38.990Z,11.55
2019-01-30T11:40:07.973Z,9.05
2019-01-30T11:42:36.259Z,10.93
2019-01-30T11:45:06.433Z,8.57
2019-01-30T11:47:36.042Z,10.15
2019-01-30T11:50:06.232Z,9.25
2019-01-30T11:52:37.164Z,8.27
2019-01-30T11:55:08.121Z,11.98
2019-01-30T11:57:36.265Z,10.05
2019-01-30T12:00:05.454Z,8.95
2019-01-30T12:02:34.435Z,10.85
2019-01-30T12:05:03.595Z,9.07
2019-01-30T12:07:32.688Z,11.10
2019-01-30T12:10:01.366Z,9.90
2019-01-30T12:12:29.598Z,9.32
2019-01-30T12:14:57.746Z,10.88
2019-01-30T12:17:25.875Z,11.98
2019-01-30T12:19:56.078Z,11.40
2019-01-30T12:22:24.584Z,11.60
2019-01-30T12:24:53.215Z,9.75
2019-01-30T12:27:23.655Z,10.50
2019-01-30T12:29:53.951Z,9.45
2019-01-30T12:32:23.828Z,9.07
2019-01-30T12:34:54.536Z,8.93
2019-01-30T12:37:23.856Z,10.40
2019-01-30T12:39:52.928Z,10.00
2019-01-30T12:42:22.556Z,9.70
2019-01-30T12:44:51.437Z,10.27
2019-01-30T12:47:20.579Z,9.30
2019-01-30T12:49:50.718Z,10.15
2019-01-30T12:52:20.261Z,11.05
2019-01-30T12:54:49.338Z,12.02
2019-01-30T12:57:17.957Z,10.70
2019-01-30T12:59:47.487Z,12.82
2019-01-30T13:02:17.683Z,11.75
2019-01-30T13:04:46.468Z,12.82
2019-01-30T13:07:14.638Z,10.98
2019-01-30T13:09:43.794Z,12.45
2019-01-30T13:12:12.388Z,11.50
2019-01-30T13:14:41.087Z,10.13
2019-01-30T13:17:11.832Z,13.43
2019-01-30T13:19:42.135Z,12.15
2019-01-30T13:22:12.182Z,12.85
2019-01-30T13:24:40.776Z,10.68
2019-01-30T13:27:08.927Z,12.40
2019-01-30T13:29:37.159Z,12.32
2019-01-30T13:32:05.063Z,10.95
2019-01-30T13:34:34.731Z,15.02
2019-01-30T13:37:04.196Z,9.83
2019-01-30T13:39:33.583Z,13.50
2019-01-30T13:42:01.660Z,15.20
2019-01-30T13:44:30.873Z,13.13
2019-01-30T13:47:00.062Z,14.52
2019-01-30T13:49:29.973Z,11.10
2019-01-30T13:52:00.264Z,13.60
2019-01-30T13:54:28.871Z,14.23
2019-01-30T13:56:57.046Z,13.88
2019-01-30T13:59:25.547Z,13.40
2019-01-30T14:01:54.116Z,13.60
2019-01-30T14:04:22.695Z,13.62
2019-01-30T14:06:52.424Z,15.10
2019-01-30T14:09:21.085Z,15.05
2019-01-30T14:11:50.870Z,14.25
2019-01-30T14:14:19.838Z,12.98
2019-01-30T14:16:48.003Z,12.75
2019-01-30T14:19:17.052Z,14.57
2019-01-30T14:21:46.851Z,14.80
2019-01-30T14:24:16.708Z,13.45
2019-01-30T14:29:35.431Z,12.90
2019-01-30T14:32:04.100Z,13.80
2019-01-30T14:34:33.934Z,14.93
2019-01-30T14:37:01.817Z,14.45
2019-01-30T14:39:30.399Z,15.02
2019-01-30T14:41:58.857Z,17.10
2019-01-30T14:44:27.087Z,16.58
2019-01-30T14:46:54.979Z,15.55
2019-01-30T14:49:23.673Z,14.25
2019-01-30T14:51:52.596Z,15.10
2019-01-30T14:54:22.805Z,17.92
2019-01-30T14:56:54.018Z,14.55
2019-01-30T14:59:22.876Z,16.02
2019-01-30T15:01:51.108Z,13.85
2019-01-30T15:04:19.199Z,15.48
2019-01-30T15:06:48.232Z,15.13
2019-01-30T15:09:16.696Z,17.20
2019-01-30T15:11:46.076Z,15.30
2019-01-30T15:14:14.195Z,18.33
2019-01-30T15:16:42.951Z,18.60
2019-01-30T15:19:12.280Z,19.50
2019-01-30T15:21:41.582Z,17.75
2019-01-30T15:24:11.257Z,15.25
2019-01-30T15:26:39.279Z,20.58
2019-01-30T15:29:08.626Z,20.55
2019-01-30T15:31:36.782Z,19.30
2019-01-30T15:34:05.588Z,19.05
2019-01-30T15:36:33.817Z,21.12
2019-01-30T15:39:02.464Z,21.98
2019-01-30T15:41:31.505Z,20.42
2019-01-30T15:43:59.817Z,27.58
2019-01-30T15:46:27.709Z,21.75
2019-01-30T15:48:56.928Z,20.63
2019-01-30T15:51:28.759Z,21.75
2019-01-30T15:53:56.996Z,25.40
2019-01-30T15:56:25.361Z,19.62
2019-01-30T15:58:53.572Z,20.20
2019-01-30T16:01:40.816Z,21.70
2019-01-30T16:04:10.431Z,23.00
2019-01-30T16:06:37.951Z,25.53
2019-01-30T16:09:08.446Z,23.60
2019-01-30T16:11:36.713Z,24.90
2019-01-30T16:14:05.461Z,25.00
2019-01-30T16:16:33.440Z,22.70
2019-01-30T16:19:02.668Z,23.03
2019-01-30T16:21:31.548Z,25.67
2019-01-30T16:24:00.063Z,23.53
2019-01-30T16:26:30.301Z,22.77
2019-01-30T16:29:00.247Z,24.15
2019-01-30T16:31:30.364Z,24.52
2019-01-30T16:33:58.964Z,29.23
2019-01-30T16:36:27.644Z,30.00
2019-01-30T16:38:55.856Z,26.50
2019-01-30T16:41:24.504Z,28.60
2019-01-30T16:43:52.765Z,28.25
2019-01-30T16:46:20.822Z,26.67
2019-01-30T16:48:48.703Z,29.37
2019-01-30T16:51:18.788Z,30.27
2019-01-30T16:53:47.501Z,27.55
2019-01-30T16:56:16.129Z,25.52
2019-01-30T16:58:44.270Z,26.02
2019-01-30T17:01:13.532Z,26.80
2019-01-30T17:03:45.078Z,30.15
2019-01-30T17:06:13.214Z,24.90
2019-01-30T17:08:41.040Z,28.77
2019-01-30T17:11:08.546Z,27.30
2019-01-30T17:13:38.706Z,32.50
2019-01-30T17:16:08.040Z,29.37
2019-01-30T17:18:37.233Z,29.40
2019-01-30T17:21:05.162Z,32.07
2019-01-30T17:23:33.491Z,27.10
2019-01-30T17:26:03.574Z,25.45
2019-01-30T17:28:31.680Z,28.43
2019-01-30T17:31:01.441Z,26.23
2019-01-30T17:33:31.108Z,32.07
2019-01-30T17:36:00.795Z,31.87
2019-01-30T17:38:29.296Z,29.23
2019-01-30T17:40:57.997Z,27.17
2019-01-30T17:43:26.636Z,27.90
2019-01-30T17:45:57.274Z,29.20
2019-01-30T17:48:25.655Z,25.73
2019-01-30T17:50:54.936Z,26.42
2019-01-30T17:53:26.546Z,28.08
2019-01-30T17:55:55.314Z,28.00
2019-01-30T17:58:23.476Z,29.58
2019-01-30T18:00:59.256Z,25.48
2019-01-30T18:03:30.298Z,24.27
2019-01-30T18:05:58.550Z,24.35
2019-01-30T18:08:27.049Z,21.17
2019-01-30T18:10:55.711Z,32.17
2019-01-30T18:13:23.910Z,22.60
2019-01-30T18:15:53.979Z,25.12
2019-01-30T18:18:22.653Z,20.37
2019-01-30T18:20:50.748Z,24.30
2019-01-30T18:23:21.383Z,21.05
2019-01-30T18:25:51.095Z,21.67
2019-01-30T18:28:20.454Z,31.30
2019-01-30T18:30:50.076Z,22.40
2019-01-30T18:33:19.329Z,28.10
2019-01-30T18:35:48.234Z,24.02
2019-01-30T18:38:16.878Z,22.50
2019-01-30T18:40:45.068Z,22.00
2019-01-30T18:43:13.141Z,25.17
2019-01-30T18:45:41.770Z,24.50
2019-01-30T18:48:11.380Z,23.03
2019-01-30T18:50:40.076Z,25.52
2019-01-30T18:53:10.241Z,29.77
2019-01-30T18:55:41.049Z,28.23
2019-01-30T18:58:09.120Z,26.17
2019-01-30T19:00:39.444Z,30.75
2019-01-30T19:03:09.278Z,31.87
2019-01-30T19:05:37.324Z,30.52
2019-01-30T19:08:05.214Z,30.67
2019-01-30T19:10:35.849Z,33.83
2019-01-30T19:13:04.004Z,33.15
2019-01-30T19:15:32.570Z,30.92
2019-01-30T19:18:02.685Z,35.43
2019-01-30T19:20:33.582Z,32.80
2019-01-30T19:23:01.036Z,49.05
2019-01-30T19:25:29.202Z,37.38
2019-01-30T19:27:57.837Z,32.45
2019-01-30T19:30:30.193Z,31.52
2019-01-30T19:32:58.125Z,34.78
2019-01-30T19:35:26.183Z,31.85
2019-01-30T19:37:54.979Z,31.33
2019-01-30T19:40:23.713Z,31.30
2019-01-30T19:42:52.280Z,30.00
2019-01-30T19:45:22.111Z,31.53
2019-01-30T19:47:50.765Z,29.03
2019-01-30T19:50:20.496Z,35.40
2019-01-30T19:52:49.160Z,31.77
2019-01-30T19:55:17.414Z,31.77
2019-01-30T19:57:47.139Z,32.83
2019-01-30T20:00:16.446Z,33.53
2019-01-30T20:02:46.246Z,31.53
2019-01-30T20:05:14.385Z,46.30
2019-01-30T20:07:42.264Z,34.53
2019-01-30T20:10:12.539Z,32.30
2019-01-30T20:12:40.231Z,29.67
2019-01-30T20:15:10.170Z,26.60
2019-01-30T20:17:38.332Z,26.20
2019-01-30T20:20:07.447Z,28.17
2019-01-30T20:22:36.219Z,25.52
2019-01-30T20:25:04.959Z,25.62
2019-01-30T20:27:34.817Z,24.90
2019-01-30T20:30:02.904Z,25.75
2019-01-30T20:32:31.606Z,20.97
2019-01-30T20:34:59.660Z,24.73
2019-01-30T20:37:28.244Z,20.00
2019-01-30T20:39:59.388Z,21.80
2019-01-30T20:42:27.549Z,18.37
2019-01-30T20:44:57.769Z,20.43
2019-01-30T20:47:27.170Z,17.77
2019-01-30T20:49:56.960Z,17.20
2019-01-30T20:52:25.658Z,16.73
2019-01-30T20:54:59.965Z,19.00
2019-01-30T20:57:22.557Z,17.37
2019-01-30T20:59:50.412Z,18.23
2019-01-30T21:02:20.258Z,15.00
2019-01-30T21:04:51.038Z,20.73
2019-01-30T21:07:18.966Z,13.93
2019-01-30T21:09:47.586Z,13.23
2019-01-30T21:12:17.183Z,13.60
2019-01-30T21:14:45.330Z,13.03
2019-01-30T21:17:13.568Z,13.17
2019-01-30T21:19:41.636Z,8.50
2019-01-30T21:22:09.721Z,11.10
2019-01-30T21:24:37.936Z,8.80
2019-01-30T21:27:07.175Z,6.95
2019-01-30T21:29:35.766Z,5.10
2019-01-30T21:32:04.244Z,5.20
2019-01-30T21:34:32.142Z,4.23
2019-01-30T21:37:01.363Z,6.00
2019-01-30T21:39:30.660Z,5.53
2019-01-30T21:41:58.606Z,5.10
2019-01-30T21:44:29.422Z,7.18
2019-01-30T21:47:01.324Z,8.43
2019-01-30T21:49:27.467Z,7.60
2019-01-30T21:51:56.128Z,8.10
2019-01-30T21:54:24.430Z,7.15
2019-01-30T21:56:54.204Z,8.50
2019-01-30T21:59:24.599Z,8.98
2019-01-30T22:01:53.812Z,8.18
2019-01-30T22:04:22.278Z,9.65
2019-01-30T22:06:50.439Z,10.20
2019-01-30T22:09:19.501Z,7.20
2019-01-30T22:11:49.757Z,7.93
2019-01-30T22:14:17.640Z,9.97
2019-01-30T22:16:46.211Z,10.83
2019-01-30T22:19:14.329Z,11.95
2019-01-30T22:21:43.416Z,14.23
2019-01-30T22:24:13.308Z,15.07
2019-01-30T22:26:41.862Z,13.57
2019-01-30T22:29:09.990Z,13.62
2019-01-30T22:31:38.648Z,12.90
2019-01-30T22:34:08.808Z,12.23
2019-01-30T22:36:37.093Z,12.27
2019-01-30T22:39:07.381Z,12.57
2019-01-30T22:41:36.486Z,13.63
2019-01-30T22:44:04.694Z,16.07
2019-01-30T22:46:32.274Z,16.97
2019-01-30T22:48:59.794Z,12.47
2019-01-30T22:51:28.604Z,16.73
2019-01-30T22:53:56.757Z,17.53
2019-01-30T22:56:25.498Z,15.90
2019-01-30T22:58:53.567Z,15.90
2019-01-30T23:01:29.221Z,18.33
2019-01-30T23:04:09.983Z,16.27
2019-01-30T23:06:52.978Z,20.80
2019-01-30T23:09:40.428Z,16.75
2019-01-30T23:12:27.767Z,15.30
2019-01-30T23:15:05.558Z,13.70
2019-01-30T23:17:43.965Z,11.68
2019-01-30T23:20:37.844Z,13.20
2019-01-30T23:23:39.904Z,22.77
2019-01-30T23:26:22.227Z,13.00
2019-01-30T23:29:19.138Z,14.38
2019-01-30T23:31:59.668Z,9.48
2019-01-30T23:34:33.807Z,9.77
2019-01-30T23:37:11.821Z,9.33
2019-01-30T23:39:59.714Z,9.53
2019-01-30T23:42:35.927Z,13.00
2019-01-30T23:45:29.202Z,11.60
2019-01-30T23:48:16.442Z,13.20
2019-01-30T23:50:54.621Z,13.53
2019-01-30T23:53:51.283Z,12.80
2019-01-30T23:56:41.372Z,12.90
2019-01-30T23:59:23.559Z,14.67
